Time;durP1;ratioP1;P1;durP2;ratioP2;P2;SDS_P1;SDS_P2;PMS_P1;PMS_P2;Temp;Humidity;BMP_temperature;BMP_pressure;BME280_temperature;BME280_humidity;BME280_pressure;Samples;Min_cycle;Max_cycle;Signal;HPM_P1;HPM_P2
2023/01/15 00:01:50;;;;;;;0.47;0.47;;;;;;;;;;8253190;28;20045;-73
2023/01/15 00:05:50;;;;;;;0.82;0.50;;;;;;;;;;8253403;28;20281;-73
2023/01/15 00:09:50;;;;;;;0.50;0.50;;;;;;;;;;8251973;28;20033;-72
2023/01/15 00:13:51;;;;;;;0.50;0.50;;;;;;;;;;8253200;28;20438;-73
2023/01/15 00:17:51;;;;;;;0.43;0.43;;;;;;;;;;8239821;28;20787;-73
2023/01/15 00:21:52;;;;;;;0.55;0.50;;;;;;;;;;8250803;28;20025;-73
2023/01/15 00:30:14;;;;;;;0.43;0.40;;;;;;;;;;8252437;28;20088;-73
2023/01/15 00:34:14;;;;;;;0.47;0.47;;;;;;;;;;8252350;28;20690;-73
2023/01/15 00:38:14;;;;;;;0.80;0.65;;;;;;;;;;8253420;28;20065;-73
2023/01/15 00:42:15;;;;;;;0.50;0.50;;;;;;;;;;8253060;28;20224;-73
2023/01/15 00:46:16;;;;;;;0.50;0.50;;;;;;;;;;8251521;28;20974;-73
2023/01/15 00:50:16;;;;;;;0.50;0.50;;;;;;;;;;8251495;28;20033;-73
2023/01/15 00:54:16;;;;;;;0.70;0.50;;;;;;;;;;8252515;28;20026;-73
2023/01/15 00:58:17;;;;;;;0.50;0.50;;;;;;;;;;8251122;28;20105;-75
2023/01/15 01:02:17;;;;;;;0.50;0.50;;;;;;;;;;8251432;28;20649;-73
2023/01/15 01:06:18;;;;;;;0.60;0.60;;;;;;;;;;8259348;28;20038;-73
2023/01/15 01:10:18;;;;;;;0.50;0.50;;;;;;;;;;8258383;28;20018;-73
2023/01/15 01:14:18;;;;;;;0.73;0.57;;;;;;;;;;8253616;28;20457;-73
2023/01/15 01:18:19;;;;;;;0.65;0.50;;;;;;;;;;8237716;28;20034;-74
2023/01/15 01:22:19;;;;;;;0.50;0.50;;;;;;;;;;8257239;28;20018;-73
2023/01/15 01:26:19;;;;;;;0.40;0.40;;;;;;;;;;8257746;28;20493;-74
2023/01/15 01:30:20;;;;;;;0.52;0.52;;;;;;;;;;8257210;28;20706;-75
2023/01/15 01:34:20;;;;;;;0.93;0.60;;;;;;;;;;8256837;28;20080;-74
2023/01/15 01:38:20;;;;;;;0.40;0.40;;;;;;;;;;8257591;28;21062;-74
2023/01/15 01:42:20;;;;;;;0.40;0.40;;;;;;;;;;8257614;28;20033;-74
2023/01/15 01:46:21;;;;;;;0.40;0.40;;;;;;;;;;8255348;28;20080;-75
2023/01/15 01:50:21;;;;;;;0.40;0.40;;;;;;;;;;8255316;28;20033;-74
2023/01/15 01:54:24;;;;;;;3.50;0.40;;;;;;;;;;8256406;28;20057;-74
2023/01/15 01:58:25;;;;;;;1.42;0.40;;;;;;;;;;8256746;28;20053;-73
2023/01/15 02:02:26;;;;;;;0.85;0.30;;;;;;;;;;8255016;28;20030;-73
2023/01/15 02:06:26;;;;;;;0.40;0.40;;;;;;;;;;8255155;28;20030;-73
2023/01/15 02:10:27;;;;;;;0.73;0.50;;;;;;;;;;8253867;28;20819;-74
2023/01/15 02:14:33;;;;;;;0.88;0.40;;;;;;;;;;8256392;28;20025;-74
2023/01/15 02:18:33;;;;;;;0.30;0.30;;;;;;;;;;8254406;28;20044;-73
2023/01/15 02:22:52;;;;;;;0.30;0.30;;;;;;;;;;8235364;28;20014;-73
2023/01/15 02:26:59;;;;;;;0.30;0.30;;;;;;;;;;8237904;28;20032;-73
2023/01/15 02:31:13;;;;;;;0.47;0.47;;;;;;;;;;8254241;28;20046;-74
2023/01/15 02:35:16;;;;;;;0.43;0.43;;;;;;;;;;8254492;28;20022;-73
2023/01/15 02:39:18;;;;;;;1.83;0.40;;;;;;;;;;8254518;28;20022;-73
2023/01/15 02:43:19;;;;;;;0.40;0.40;;;;;;;;;;8255685;28;20474;-73
2023/01/15 02:47:23;;;;;;;1.85;0.40;;;;;;;;;;8242197;28;20069;-73
2023/01/15 02:51:24;;;;;;;0.30;0.30;;;;;;;;;;8253980;28;20046;-73
2023/01/15 02:55:28;;;;;;;0.75;0.30;;;;;;;;;;8253271;28;20645;-73
2023/01/15 02:59:34;;;;;;;0.40;0.40;;;;;;;;;;8253885;28;20197;-73
2023/01/15 03:03:38;;;;;;;0.30;0.30;;;;;;;;;;8253331;28;20204;-73
2023/01/15 03:07:53;;;;;;;0.37;0.37;;;;;;;;;;8253736;28;20087;-74
2023/01/15 03:12:01;;;;;;;0.40;0.40;;;;;;;;;;8253950;28;20041;-73
2023/01/15 03:20:28;;;;;;;0.30;0.30;;;;;;;;;;8253372;28;20114;-73
2023/01/15 03:24:33;;;;;;;0.30;0.30;;;;;;;;;;8253984;28;20036;-73
2023/01/15 03:28:35;;;;;;;1.40;0.40;;;;;;;;;;8253128;28;20523;-74
2023/01/15 03:32:35;;;;;;;0.32;0.32;;;;;;;;;;8239144;28;20044;-73
2023/01/15 03:36:36;;;;;;;0.30;0.30;;;;;;;;;;8252967;28;20049;-73
2023/01/15 03:40:37;;;;;;;0.30;0.30;;;;;;;;;;8239803;28;20068;-74
2023/01/15 03:44:56;;;;;;;0.22;0.22;;;;;;;;;;8236375;28;20072;-74
2023/01/15 03:49:06;;;;;;;3.92;0.30;;;;;;;;;;8251067;28;20042;-74
2023/01/15 03:53:24;;;;;;;2.40;0.40;;;;;;;;;;8251935;28;20387;-74
2023/01/15 03:57:31;;;;;;;0.35;0.35;;;;;;;;;;8253794;28;20030;-73
2023/01/15 04:01:37;;;;;;;0.30;0.30;;;;;;;;;;8236300;28;20135;-74
2023/01/15 04:05:37;;;;;;;0.73;0.40;;;;;;;;;;8254085;28;20036;-73
2023/01/15 04:09:38;;;;;;;0.77;0.30;;;;;;;;;;8253098;28;20065;-73
2023/01/15 04:13:38;;;;;;;0.50;0.30;;;;;;;;;;8235627;28;20381;-73
2023/01/15 04:17:38;;;;;;;0.28;0.20;;;;;;;;;;8253041;28;20037;-73
2023/01/15 04:21:38;;;;;;;0.20;0.20;;;;;;;;;;8253872;28;20177;-74
2023/01/15 04:25:39;;;;;;;0.30;0.30;;;;;;;;;;8253665;28;20026;-73
2023/01/15 04:29:40;;;;;;;0.30;0.30;;;;;;;;;;8236616;28;20505;-74
2023/01/15 04:33:40;;;;;;;0.30;0.30;;;;;;;;;;8252627;28;20065;-74
2023/01/15 04:37:40;;;;;;;0.30;0.30;;;;;;;;;;8254378;28;20596;-74
2023/01/15 04:45:59;;;;;;;0.30;0.30;;;;;;;;;;8258974;28;20133;-73
2023/01/15 04:49:59;;;;;;;0.20;0.20;;;;;;;;;;8257613;28;20061;-73
2023/01/15 04:54:03;;;;;;;0.20;0.20;;;;;;;;;;8258307;28;21027;-74
2023/01/15 04:58:03;;;;;;;0.60;0.30;;;;;;;;;;8259239;28;20025;-73
2023/01/15 05:02:03;;;;;;;0.30;0.30;;;;;;;;;;8259317;28;20805;-74
2023/01/15 05:06:04;;;;;;;0.20;0.20;;;;;;;;;;8257770;28;20895;-73
2023/01/15 05:10:04;;;;;;;0.20;0.20;;;;;;;;;;8234335;28;20036;-73
2023/01/15 05:14:04;;;;;;;0.30;0.30;;;;;;;;;;8258296;28;20092;-74
2023/01/15 05:18:05;;;;;;;0.30;0.30;;;;;;;;;;8256664;28;20144;-74
2023/01/15 05:22:06;;;;;;;1.08;0.30;;;;;;;;;;8258294;28;20037;-74
2023/01/15 05:26:06;;;;;;;0.55;0.30;;;;;;;;;;8257305;28;20099;-74
2023/01/15 05:30:06;;;;;;;0.30;0.30;;;;;;;;;;8257761;28;20036;-74
2023/01/15 05:34:06;;;;;;;0.50;0.50;;;;;;;;;;8259512;28;20933;-74
2023/01/15 05:38:07;;;;;;;0.20;0.20;;;;;;;;;;8256825;28;20609;-74
2023/01/15 05:42:07;;;;;;;0.20;0.20;;;;;;;;;;8256572;28;20639;-73
2023/01/15 05:46:07;;;;;;;0.30;0.30;;;;;;;;;;8258443;28;20066;-74
2023/01/15 05:50:08;;;;;;;0.28;0.28;;;;;;;;;;8257057;28;20697;-73
2023/01/15 05:54:10;;;;;;;0.30;0.30;;;;;;;;;;8258390;28;20026;-74
2023/01/15 05:58:10;;;;;;;0.30;0.30;;;;;;;;;;8256244;28;20101;-73
2023/01/15 06:02:10;;;;;;;0.30;0.30;;;;;;;;;;8257736;28;20227;-74
2023/01/15 06:06:14;;;;;;;0.30;0.30;;;;;;;;;;8256413;28;20037;-74
2023/01/15 06:10:16;;;;;;;0.20;0.20;;;;;;;;;;8256249;28;20795;-74
2023/01/15 06:14:16;;;;;;;0.35;0.30;;;;;;;;;;8256349;28;20036;-75
2023/01/15 06:18:16;;;;;;;0.47;0.30;;;;;;;;;;8255742;28;20038;-74
2023/01/15 06:22:17;;;;;;;0.32;0.32;;;;;;;;;;8256469;28;20061;-73
2023/01/15 06:26:17;;;;;;;0.30;0.30;;;;;;;;;;8257412;28;20091;-73
2023/01/15 06:30:17;;;;;;;0.43;0.43;;;;;;;;;;8237880;28;20144;-73
2023/01/15 06:34:17;;;;;;;0.40;0.40;;;;;;;;;;8255829;28;20079;-74
2023/01/15 06:38:18;;;;;;;0.30;0.30;;;;;;;;;;8257248;28;20033;-76
2023/01/15 06:51:00;;;;;;;0.30;0.30;;;;;;;;;;8256523;28;20045;-73
2023/01/15 06:55:00;;;;;;;0.68;0.40;;;;;;;;;;8255731;28;20702;-73
2023/01/15 06:59:00;;;;;;;2.35;1.45;;;;;;;;;;8256129;28;20029;-74
2023/01/15 07:03:01;;;;;;;0.40;0.40;;;;;;;;;;8255472;28;20512;-73
2023/01/15 07:07:01;;;;;;;0.65;0.40;;;;;;;;;;8253926;28;20055;-73
2023/01/15 07:11:03;;;;;;;0.60;0.60;;;;;;;;;;8255110;28;20047;-74
2023/01/15 07:15:03;;;;;;;0.73;0.50;;;;;;;;;;8255160;28;20029;-74
2023/01/15 07:19:03;;;;;;;0.40;0.40;;;;;;;;;;8253547;28;20017;-73
2023/01/15 07:23:03;;;;;;;0.40;0.40;;;;;;;;;;8255438;28;20065;-73
2023/01/15 07:27:04;;;;;;;0.32;0.32;;;;;;;;;;8236776;28;20926;-74
2023/01/15 07:31:04;;;;;;;0.50;0.50;;;;;;;;;;8254568;28;20041;-72
2023/01/15 07:35:05;;;;;;;0.50;0.50;;;;;;;;;;8255248;28;20065;-73
2023/01/15 07:39:06;;;;;;;0.80;0.65;;;;;;;;;;8235322;28;20329;-72
2023/01/15 07:51:45;;;;;;;0.40;0.40;;;;;;;;;;8254724;28;20132;-72
2023/01/15 07:55:45;;;;;;;0.30;0.30;;;;;;;;;;8254290;28;20451;-72
2023/01/15 07:59:45;;;;;;;0.60;0.60;;;;;;;;;;8253732;28;20030;-72
2023/01/15 08:03:46;;;;;;;0.63;0.50;;;;;;;;;;8253544;28;20033;-72
2023/01/15 08:07:46;;;;;;;1.48;0.60;;;;;;;;;;8238160;28;20710;-73
2023/01/15 08:16:05;;;;;;;1.48;0.57;;;;;;;;;;8255597;28;20045;-73
2023/01/15 08:20:07;;;;;;;0.90;0.40;;;;;;;;;;8255805;28;20029;-73
2023/01/15 08:24:08;;;;;;;0.60;0.60;;;;;;;;;;8236168;28;20382;-72
2023/01/15 08:28:08;;;;;;;0.38;0.38;;;;;;;;;;8256218;28;20028;-72
2023/01/15 08:32:08;;;;;;;0.75;0.50;;;;;;;;;;8257649;28;20753;-73
2023/01/15 08:36:08;;;;;;;0.45;0.45;;;;;;;;;;8258109;28;20021;-73
2023/01/15 08:40:10;;;;;;;1.13;0.60;;;;;;;;;;8243049;28;20026;-73
2023/01/15 08:44:10;;;;;;;0.80;0.60;;;;;;;;;;8256006;28;20273;-73
2023/01/15 08:48:10;;;;;;;1.05;0.60;;;;;;;;;;8237575;28;20037;-72
2023/01/15 08:52:10;;;;;;;1.20;1.10;;;;;;;;;;8255366;28;20620;-72
2023/01/15 08:56:15;;;;;;;3.53;1.40;;;;;;;;;;8254421;28;20033;-72
2023/01/15 09:00:15;;;;;;;;;;;;;;;;;;8254373;28;20878;-73
2023/01/15 09:04:16;;;;;;;9.32;5.40;;;;;;;;;;8253856;28;19924;-73
2023/01/15 09:08:16;;;;;;;2.15;1.98;;;;;;;;;;8251729;28;20497;-73
2023/01/15 09:12:17;;;;;;;0.80;0.80;;;;;;;;;;8252318;28;20084;-72
2023/01/15 09:16:17;;;;;;;2.50;1.00;;;;;;;;;;8253416;28;20034;-72
2023/01/15 09:20:17;;;;;;;3.38;1.10;;;;;;;;;;8252496;28;21122;-72
2023/01/15 09:24:17;;;;;;;2.17;0.60;;;;;;;;;;8250815;28;20033;-72
2023/01/15 09:28:17;;;;;;;5.15;0.75;;;;;;;;;;8251006;28;20481;-73
2023/01/15 09:32:17;;;;;;;1.42;0.85;;;;;;;;;;8252257;28;20045;-73
2023/01/15 09:36:28;;;;;;;0.70;0.70;;;;;;;;;;8233437;28;20026;-74
2023/01/15 09:40:36;;;;;;;1.52;0.60;;;;;;;;;;8250821;28;20123;-72
2023/01/15 09:44:48;;;;;;;0.70;0.57;;;;;;;;;;8252621;28;20172;-71
2023/01/15 09:49:02;;;;;;;2.72;0.60;;;;;;;;;;8232796;28;20910;-72
2023/01/15 09:53:27;;;;;;;1.13;0.85;;;;;;;;;;8251678;28;20127;-72
2023/01/15 09:57:28;;;;;;;0.95;0.45;;;;;;;;;;8253885;28;20034;-72
2023/01/15 10:01:29;;;;;;;0.47;0.47;;;;;;;;;;8251961;28;20030;-72
2023/01/15 10:05:30;;;;;;;0.60;0.60;;;;;;;;;;8251306;28;20033;-72
2023/01/15 10:09:36;;;;;;;1.40;0.57;;;;;;;;;;8251937;28;20034;-71
2023/01/15 10:13:40;;;;;;;1.73;1.13;;;;;;;;;;8230905;28;20664;-72
2023/01/15 10:17:47;;;;;;;1.10;0.70;;;;;;;;;;8248362;28;20036;-71
2023/01/15 10:22:09;;;;;;;2.40;1.00;;;;;;;;;;8251234;28;20046;-72
2023/01/15 10:26:28;;;;;;;2.40;1.10;;;;;;;;;;8249790;28;20610;-70
2023/01/15 10:30:36;;;;;;;1.33;0.60;;;;;;;;;;8249337;28;20168;-71
2023/01/15 10:34:48;;;;;;;1.67;1.02;;;;;;;;;;8232045;28;20076;-72
2023/01/15 10:38:58;;;;;;;1.23;0.70;;;;;;;;;;8249800;28;20529;-73
2023/01/15 10:43:01;;;;;;;1.90;1.05;;;;;;;;;;8252856;28;20823;-72
2023/01/15 10:47:01;;;;;;;4.25;2.10;;;;;;;;;;8249148;28;20144;-72
2023/01/15 10:51:03;;;;;;;3.90;2.13;;;;;;;;;;8250071;28;20053;-72
2023/01/15 10:55:09;;;;;;;0.75;0.70;;;;;;;;;;8250367;28;20141;-72
2023/01/15 10:59:33;;;;;;;1.75;0.70;;;;;;;;;;8247634;28;20128;-72
2023/01/15 11:03:35;;;;;;;1.52;0.68;;;;;;;;;;8240666;28;20783;-72
2023/01/15 11:07:37;;;;;;;2.33;0.75;;;;;;;;;;8249995;28;20127;-72
2023/01/15 11:20:17;;;;;;;1.55;1.00;;;;;;;;;;8248874;28;20037;-72
2023/01/15 11:24:17;;;;;;;0.80;0.43;;;;;;;;;;8249387;28;20022;-72
2023/01/15 11:28:29;;;;;;;3.10;1.10;;;;;;;;;;8243541;28;20026;-72
2023/01/15 11:32:30;;;;;;;4.63;1.98;;;;;;;;;;8230158;28;20113;-72
2023/01/15 11:36:31;;;;;;;3.40;0.82;;;;;;;;;;8247842;28;20115;-72
2023/01/15 11:40:31;;;;;;;6.60;3.40;;;;;;;;;;8233429;28;20026;-72
2023/01/15 11:53:17;;;;;;;4.15;0.80;;;;;;;;;;8248779;28;20407;-72
2023/01/15 11:57:31;;;;;;;5.22;0.88;;;;;;;;;;8224808;28;20064;-71
2023/01/15 12:01:33;;;;;;;2.03;0.80;;;;;;;;;;8246838;28;20471;-72
2023/01/15 12:05:34;;;;;;;2.03;0.90;;;;;;;;;;8243458;28;20030;-72
2023/01/15 12:09:34;;;;;;;2.08;1.00;;;;;;;;;;8242657;28;20072;-73
2023/01/15 12:13:34;;;;;;;2.92;0.70;;;;;;;;;;8243145;28;20030;-72
2023/01/15 12:17:44;;;;;;;0.80;0.70;;;;;;;;;;8245925;28;20124;-72
2023/01/15 12:22:03;;;;;;;2.65;0.70;;;;;;;;;;8231515;28;20033;-72
2023/01/15 12:26:22;;;;;;;1.80;0.90;;;;;;;;;;8247316;28;20353;-72
2023/01/15 12:30:27;;;;;;;2.67;0.80;;;;;;;;;;8246122;28;20414;-73
2023/01/15 12:34:40;;;;;;;2.72;0.80;;;;;;;;;;8246263;28;20099;-72
2023/01/15 12:38:49;;;;;;;0.57;0.57;;;;;;;;;;8247497;28;20026;-72
2023/01/15 12:47:17;;;;;;;1.48;0.90;;;;;;;;;;8248273;28;20399;-72
2023/01/15 12:51:22;;;;;;;2.35;0.90;;;;;;;;;;8249022;28;20022;-72
2023/01/15 12:55:27;;;;;;;1.27;0.70;;;;;;;;;;8229698;28;20091;-72
2023/01/15 12:59:31;;;;;;;3.92;0.75;;;;;;;;;;8249522;28;20465;-72
2023/01/15 13:03:31;;;;;;;;;;;;;;;;;;8254967;28;20037;-72
2023/01/15 13:07:39;;;;;;;3.17;0.90;;;;;;;;;;8254254;28;20417;-72
2023/01/15 13:11:40;;;;;;;2.20;0.82;;;;;;;;;;8254283;28;20040;-72
2023/01/15 13:15:49;;;;;;;2.75;1.13;;;;;;;;;;8253097;28;20569;-72
2023/01/15 13:20:00;;;;;;;4.55;1.20;;;;;;;;;;8250732;28;20022;-72
2023/01/15 13:24:18;;;;;;;2.28;0.85;;;;;;;;;;8253747;28;20045;-72
2023/01/15 13:28:34;;;;;;;4.50;1.35;;;;;;;;;;8253210;28;20026;-73
2023/01/15 13:32:41;;;;;;;5.63;1.25;;;;;;;;;;8251404;28;20033;-73
2023/01/15 13:36:44;;;;;;;2.88;1.10;;;;;;;;;;8252809;28;21050;-72
2023/01/15 13:40:50;;;;;;;5.47;1.38;;;;;;;;;;8251307;28;20676;-71
2023/01/15 13:44:52;;;;;;;3.67;0.88;;;;;;;;;;8233715;28;20096;-72
2023/01/15 13:48:52;;;;;;;9.05;1.80;;;;;;;;;;8252278;28;20050;-72
2023/01/15 13:53:00;;;;;;;1.57;0.87;;;;;;;;;;8252664;28;20038;-71
2023/01/15 13:57:07;;;;;;;4.05;1.10;;;;;;;;;;8249997;28;20285;-71
2023/01/15 14:01:16;;;;;;;3.13;0.90;;;;;;;;;;8248681;28;20214;-71
2023/01/15 14:05:25;;;;;;;5.22;1.10;;;;;;;;;;8253995;28;20025;-71
2023/01/15 14:09:30;;;;;;;4.78;0.93;;;;;;;;;;8248267;28;21140;-71
2023/01/15 14:13:44;;;;;;;3.78;1.10;;;;;;;;;;8250330;28;20037;-72
2023/01/15 14:17:47;;;;;;;3.30;1.30;;;;;;;;;;8250228;28;20030;-71
2023/01/15 14:21:56;;;;;;;5.65;1.52;;;;;;;;;;8249109;28;20026;-72
2023/01/15 14:25:59;;;;;;;2.88;1.90;;;;;;;;;;8251001;28;20380;-72
2023/01/15 14:30:32;;;;;;;5.03;2.00;;;;;;;;;;8233555;28;20034;-72
2023/01/15 14:34:33;;;;;;;3.25;1.20;;;;;;;;;;8207012;28;20134;-72
2023/01/15 14:38:33;;;;;;;5.18;2.00;;;;;;;;;;8251376;28;20053;-72
2023/01/15 14:47:05;;;;;;;2.50;1.20;;;;;;;;;;8249714;28;20392;-71
2023/01/15 14:51:06;;;;;;;3.53;1.20;;;;;;;;;;8250257;28;20795;-71
2023/01/15 14:55:09;;;;;;;8.45;1.27;;;;;;;;;;8250415;28;20014;-71
2023/01/15 14:59:09;;;;;;;4.63;1.52;;;;;;;;;;8249665;28;20025;-71
2023/01/15 15:03:15;;;;;;;4.10;1.30;;;;;;;;;;8250491;28;20022;-71
2023/01/15 15:07:17;;;;;;;4.25;1.33;;;;;;;;;;8250064;28;20144;-71
2023/01/15 15:15:59;;;;;;;3.63;1.20;;;;;;;;;;8248222;28;20493;-72
2023/01/15 15:20:31;;;;;;;1.67;0.90;;;;;;;;;;8248302;28;20487;-72
2023/01/15 15:24:35;;;;;;;3.42;1.20;;;;;;;;;;8216764;28;20038;-72
2023/01/15 15:28:35;;;;;;;5.65;1.23;;;;;;;;;;8247780;28;20048;-72
2023/01/15 15:32:39;;;;;;;3.67;1.10;;;;;;;;;;8227357;28;20959;-72
2023/01/15 15:36:39;;;;;;;4.85;1.48;;;;;;;;;;8238829;28;20075;-72
2023/01/15 15:40:44;;;;;;;4.57;1.10;;;;;;;;;;8246618;28;20113;-72
2023/01/15 15:49:11;;;;;;;6.68;1.50;;;;;;;;;;8247734;28;20041;-72
2023/01/15 15:53:16;;;;;;;3.40;1.00;;;;;;;;;;8249417;28;20298;-72
2023/01/15 15:57:17;;;;;;;2.90;0.90;;;;;;;;;;8247728;28;20112;-71
2023/01/15 16:01:18;;;;;;;0.88;0.50;;;;;;;;;;8249179;28;20030;-71
2023/01/15 16:05:20;;;;;;;1.83;1.00;;;;;;;;;;8246804;28;20127;-72
2023/01/15 16:09:21;;;;;;;1.35;0.80;;;;;;;;;;8248902;28;20137;-72
2023/01/15 16:13:26;;;;;;;3.10;1.20;;;;;;;;;;8248163;28;20040;-72
2023/01/15 16:17:26;;;;;;;4.90;1.45;;;;;;;;;;8248717;28;20128;-71
2023/01/15 16:21:27;;;;;;;8.63;3.05;;;;;;;;;;8248085;28;20049;-71
2023/01/15 16:25:35;;;;;;;6.82;3.08;;;;;;;;;;8245025;28;20022;-71
2023/01/15 16:29:36;;;;;;;2.53;1.13;;;;;;;;;;8246993;28;20010;-72
2023/01/15 16:33:36;;;;;;;7.63;2.30;;;;;;;;;;8246736;28;20029;-72
2023/01/15 16:37:38;;;;;;;5.13;1.83;;;;;;;;;;8254657;28;20054;-72
2023/01/15 16:41:41;;;;;;;3.60;1.50;;;;;;;;;;8256263;28;20140;-72
2023/01/15 16:45:56;;;;;;;4.90;1.20;;;;;;;;;;8253160;28;20072;-73
2023/01/15 16:50:15;;;;;;;4.40;1.80;;;;;;;;;;8235992;28;20026;-74
2023/01/15 16:54:30;;;;;;;3.55;1.25;;;;;;;;;;8237775;28;20683;-74
2023/01/15 16:58:32;;;;;;;3.72;1.50;;;;;;;;;;8255487;28;20061;-74
2023/01/15 17:02:38;;;;;;;4.30;1.42;;;;;;;;;;8233653;28;20038;-73
2023/01/15 17:06:39;;;;;;;4.70;1.73;;;;;;;;;;8253985;28;20108;-75
2023/01/15 17:10:50;;;;;;;6.53;1.90;;;;;;;;;;8236369;28;20437;-74
2023/01/15 17:14:51;;;;;;;4.65;1.58;;;;;;;;;;8254841;28;20030;-74
2023/01/15 17:18:51;;;;;;;7.28;1.20;;;;;;;;;;8250343;28;20046;-74
2023/01/15 17:22:51;;;;;;;3.53;0.90;;;;;;;;;;8255147;28;20160;-73
2023/01/15 17:26:51;;;;;;;4.50;1.20;;;;;;;;;;8242336;28;20025;-73
2023/01/15 17:30:56;;;;;;;3.13;0.70;;;;;;;;;;8252631;28;20169;-74
2023/01/15 17:34:56;;;;;;;;;;;;;;;;;;8255590;28;20737;-73
2023/01/15 17:38:56;;;;;;;3.63;1.00;;;;;;;;;;8242969;28;19913;-73
2023/01/15 17:42:58;;;;;;;3.22;0.95;;;;;;;;;;8252249;28;20018;-73
2023/01/15 17:46:58;;;;;;;4.75;1.10;;;;;;;;;;8252119;28;20037;-73
2023/01/15 17:50:59;;;;;;;3.20;1.23;;;;;;;;;;8253599;28;20022;-74
2023/01/15 18:08:01;;;;;;;4.72;1.15;;;;;;;;;;8253505;28;20036;-73
2023/01/15 18:12:02;;;;;;;2.67;1.08;;;;;;;;;;8252828;28;20080;-72
2023/01/15 18:16:02;;;;;;;7.45;1.70;;;;;;;;;;8232786;28;20212;-72
2023/01/15 18:20:02;;;;;;;5.25;1.30;;;;;;;;;;8251501;28;20037;-73
2023/01/15 18:24:03;;;;;;;2.35;0.82;;;;;;;;;;8252793;28;20049;-72
2023/01/15 18:28:03;;;;;;;3.67;0.93;;;;;;;;;;8249742;28;20026;-73
2023/01/15 18:32:03;;;;;;;6.03;1.20;;;;;;;;;;8232472;28;20045;-73
2023/01/15 18:36:05;;;;;;;3.83;1.20;;;;;;;;;;8251641;28;20400;-73
2023/01/15 18:40:05;;;;;;;7.60;1.40;;;;;;;;;;8250621;28;20505;-73
2023/01/15 18:48:35;;;;;;;3.15;1.13;;;;;;;;;;8250284;28;20100;-73
2023/01/15 18:52:48;;;;;;;3.20;1.45;;;;;;;;;;8251359;28;21939;-73
2023/01/15 18:56:49;;;;;;;2.97;0.97;;;;;;;;;;8247379;28;20029;-73
2023/01/15 19:00:49;;;;;;;6.90;1.20;;;;;;;;;;8247682;28;20034;-73
2023/01/15 19:04:49;;;;;;;5.45;1.40;;;;;;;;;;8250391;28;20030;-73
2023/01/15 19:08:49;;;;;;;10.43;1.92;;;;;;;;;;8250298;28;20056;-73
2023/01/15 19:12:49;;;;;;;3.35;1.20;;;;;;;;;;8234841;28;20060;-73
2023/01/15 19:21:10;;;;;;;5.18;1.50;;;;;;;;;;8248537;28;20080;-73
2023/01/15 19:25:11;;;;;;;10.25;1.58;;;;;;;;;;8253448;28;20479;-73
2023/01/15 19:29:11;;;;;;;5.47;1.10;;;;;;;;;;8252863;28;20438;-73
2023/01/15 19:33:11;;;;;;;3.47;1.10;;;;;;;;;;8251271;28;20034;-72
2023/01/15 19:37:11;;;;;;;5.90;1.40;;;;;;;;;;8251585;28;20026;-73
2023/01/15 19:54:09;;;;;;;3.95;0.95;;;;;;;;;;8251919;28;20486;-73
2023/01/15 19:58:10;;;;;;;4.82;1.20;;;;;;;;;;8250392;28;20022;-73
2023/01/15 20:02:10;;;;;;;4.03;1.10;;;;;;;;;;8253429;28;20041;-73
2023/01/15 20:06:10;;;;;;;6.88;1.20;;;;;;;;;;8250162;28;20025;-73
2023/01/15 20:10:12;;;;;;;4.75;1.00;;;;;;;;;;8251617;28;20064;-73
2023/01/15 20:14:12;;;;;;;3.03;0.93;;;;;;;;;;8252769;28;20034;-74
2023/01/15 20:18:12;;;;;;;3.88;0.98;;;;;;;;;;8248839;28;20053;-74
2023/01/15 20:22:13;;;;;;;3.45;1.25;;;;;;;;;;8249783;28;20028;-74
2023/01/15 20:26:13;;;;;;;3.70;0.85;;;;;;;;;;8230645;28;20026;-74
2023/01/15 20:30:15;;;;;;;5.30;1.15;;;;;;;;;;8250253;28;20026;-74
2023/01/15 20:34:15;;;;;;;4.47;1.10;;;;;;;;;;8250828;28;20112;-74
2023/01/15 20:38:17;;;;;;;4.18;1.13;;;;;;;;;;8251052;28;20689;-73
2023/01/15 20:46:36;;;;;;;3.72;1.02;;;;;;;;;;8253204;28;20037;-73
2023/01/15 20:50:38;;;;;;;7.53;1.45;;;;;;;;;;8251762;28;20038;-74
2023/01/15 20:54:39;;;;;;;5.70;1.10;;;;;;;;;;8254202;28;20029;-74
2023/01/15 20:58:39;;;;;;;6.28;0.90;;;;;;;;;;8252751;28;20022;-74
2023/01/15 21:02:39;;;;;;;6.00;1.25;;;;;;;;;;8249468;28;20045;-74
2023/01/15 21:06:39;;;;;;;5.50;1.00;;;;;;;;;;8252983;28;20112;-73
2023/01/15 21:10:40;;;;;;;2.35;0.85;;;;;;;;;;8249817;28;20037;-74
2023/01/15 21:14:40;;;;;;;5.07;1.20;;;;;;;;;;8246222;28;20033;-74
2023/01/15 21:18:43;;;;;;;3.42;1.08;;;;;;;;;;8222570;28;20022;-74
2023/01/15 21:22:43;;;;;;;7.38;1.27;;;;;;;;;;8257949;28;20022;-74
2023/01/15 21:26:46;;;;;;;6.22;1.20;;;;;;;;;;8258194;28;20403;-74
2023/01/15 21:30:46;;;;;;;2.22;1.20;;;;;;;;;;8258233;28;20494;-74
2023/01/15 21:34:46;;;;;;;3.42;0.95;;;;;;;;;;8255308;28;20036;-74
2023/01/15 21:38:50;;;;;;;3.85;1.10;;;;;;;;;;8257914;28;20632;-73
2023/01/15 21:47:11;;;;;;;1.55;0.90;;;;;;;;;;8257486;28;20109;-74
2023/01/15 21:51:11;;;;;;;3.63;1.20;;;;;;;;;;8256920;28;20037;-74
2023/01/15 21:55:12;;;;;;;6.13;1.08;;;;;;;;;;8258696;28;20493;-74
2023/01/15 21:59:12;;;;;;;2.83;0.95;;;;;;;;;;8257471;28;20036;-74
2023/01/15 22:03:16;;;;;;;1.58;0.82;;;;;;;;;;8256683;28;20041;-73
2023/01/15 22:07:16;;;;;;;1.97;0.90;;;;;;;;;;8241773;28;20079;-74
2023/01/15 22:11:17;;;;;;;2.97;0.85;;;;;;;;;;8257119;28;20072;-74
2023/01/15 22:15:17;;;;;;;1.25;0.68;;;;;;;;;;8256575;28;20625;-74
2023/01/15 22:19:18;;;;;;;2.38;1.25;;;;;;;;;;8256216;28;20029;-74
2023/01/15 22:23:19;;;;;;;4.20;1.40;;;;;;;;;;8257040;28;20469;-74
2023/01/15 22:27:19;;;;;;;2.35;0.80;;;;;;;;;;8255922;28;20148;-74
2023/01/15 22:31:19;;;;;;;3.85;1.13;;;;;;;;;;8251467;28;20066;-73
2023/01/15 22:35:21;;;;;;;2.80;1.10;;;;;;;;;;8255772;28;20026;-73
2023/01/15 22:39:22;;;;;;;3.25;1.00;;;;;;;;;;8255795;28;20105;-73
2023/01/15 22:43:22;;;;;;;6.30;0.98;;;;;;;;;;8254924;28;20053;-73
2023/01/15 22:47:22;;;;;;;2.75;0.90;;;;;;;;;;8254546;28;20114;-74
2023/01/15 22:51:22;;;;;;;4.23;1.13;;;;;;;;;;8255218;28;20037;-74
2023/01/15 22:55:22;;;;;;;3.55;1.10;;;;;;;;;;8255828;28;20291;-74
2023/01/15 22:59:23;;;;;;;3.00;0.82;;;;;;;;;;8254244;28;20829;-74
2023/01/15 23:03:23;;;;;;;3.33;1.20;;;;;;;;;;8240109;28;20821;-74
2023/01/15 23:07:23;;;;;;;4.40;1.08;;;;;;;;;;8256472;28;20026;-73
2023/01/15 23:11:24;;;;;;;3.72;1.00;;;;;;;;;;8241099;28;20033;-74
2023/01/15 23:15:24;;;;;;;4.95;0.98;;;;;;;;;;8255326;28;20129;-74
2023/01/15 23:19:26;;;;;;;3.28;1.00;;;;;;;;;;8252913;28;20041;-74
2023/01/15 23:23:26;;;;;;;5.35;0.90;;;;;;;;;;8234867;28;20029;-74
2023/01/15 23:27:26;;;;;;;4.13;0.93;;;;;;;;;;8253104;28;20704;-74
2023/01/15 23:31:27;;;;;;;3.30;1.00;;;;;;;;;;8253257;28;20041;-73
2023/01/15 23:35:27;;;;;;;2.30;0.95;;;;;;;;;;8251955;28;20107;-73
2023/01/15 23:39:27;;;;;;;4.38;1.00;;;;;;;;;;8252455;28;20104;-73
2023/01/15 23:47:46;;;;;;;6.13;1.10;;;;;;;;;;8251362;28;20634;-73
2023/01/15 23:51:46;;;;;;;4.00;1.08;;;;;;;;;;8238351;28;20037;-73
2023/01/15 23:55:46;;;;;;;2.97;1.08;;;;;;;;;;8252333;28;20041;-73
2023/01/15 23:59:47;;;;;;;7.10;1.20;;;;;;;;;;8253765;28;20037;-73
